»·PEaware :: N6909T KBFL-KVBG

N6909T :: KBFL-KVBG

FLIGHT INFORMATION

Flight Status: Arrived
Operator: Privately registered:
United States
More flights under this callsign
Pilot: Paul P. (20696)
Aircraft: CESSNA 208 CARAVAN
(C208)
More flights by this aircraft type
Origin: KBFL Meadows
United States
Destination: KVBG Vandenberg AFB
United States
More flights between these airports :: More routes between these airports
Route: +MEADO3 RZS
File this flight plan on PilotEdge
Remarks: RMK / SIMBRIEF
Altitude:
(Current/Filed)
10,000ft
Speed:
(Current/Filed)
179kts
Departed: 16-Jun-19 09:31 AM
Arrived: 16-Jun-19 10:25 AM
Distance/Time
Traveled:
85nm/0:54
Distance/Time
To Go:
Arrived

Flight Plot

Page will automatically refresh every two minutes.

Flight plan parsing failed; only flown route is shown


Map Options




Map Legend


Flown Route
Filed Route
Departure Airport
Arrival Airport
Navaid (VOR, NDB)
Fix

Horizontal Profiles

Position Reports

Time Latitude Longitude Heading Altitude Ground
Speed
16-Jun-19 09:19 35.429381 -119.046088 226 500ft 0kts
16-Jun-19 09:20 35.429381 -119.046088 226 500ft 0kts
16-Jun-19 09:21 35.429381 -119.046088 226 500ft 0kts
16-Jun-19 09:22 35.429381 -119.046088 226 500ft 0kts
16-Jun-19 09:23 35.429381 -119.046088 226 500ft 0kts
16-Jun-19 09:24 35.429381 -119.046088 226 500ft 0kts
16-Jun-19 09:25 35.429381 -119.046088 226 500ft 0kts
16-Jun-19 09:26 35.429074 -119.046481 225 500ft 8kts
16-Jun-19 09:27 35.428107 -119.047041 137 500ft 11kts
16-Jun-19 09:28 35.425650 -119.044661 270 500ft 2kts
16-Jun-19 09:29 35.425704 -119.046317 310 500ft 15kts
16-Jun-19 09:30 35.439382 -119.063140 312 1461ft 75kts
16-Jun-19 09:31 35.455390 -119.084182 312 2613ft 94kts
16-Jun-19 09:32 35.476121 -119.111783 312 2962ft 129kts
16-Jun-19 09:33 35.500411 -119.146114 282 3552ft 122kts
16-Jun-19 09:34 35.475374 -119.162768 189 4677ft 118kts
16-Jun-19 09:35 35.444779 -119.174013 203 5772ft 110kts
16-Jun-19 09:36 35.418800 -119.188582 207 6958ft 98kts
16-Jun-19 09:37 35.395312 -119.203065 208 8130ft 94kts
16-Jun-19 09:38 35.370946 -119.218640 209 9246ft 102kts
16-Jun-19 09:39 35.343965 -119.236133 208 10009ft 134kts
16-Jun-19 09:40 35.305939 -119.260931 208 10000ft 163kts
16-Jun-19 09:41 35.265194 -119.287333 208 9999ft 165kts
16-Jun-19 09:42 35.224242 -119.313808 208 9999ft 165kts
16-Jun-19 09:43 35.183244 -119.340275 208 9999ft 165kts
16-Jun-19 09:44 35.142135 -119.366778 208 9999ft 165kts
16-Jun-19 09:45 35.101269 -119.393093 208 9999ft 166kts
16-Jun-19 09:46 35.060374 -119.419399 208 9999ft 166kts
16-Jun-19 09:47 35.020722 -119.444866 209 9999ft 166kts
16-Jun-19 09:48 34.979679 -119.471214 209 9999ft 166kts
16-Jun-19 09:49 34.938659 -119.497514 209 9999ft 166kts
16-Jun-19 09:50 34.897507 -119.523863 209 9999ft 166kts
16-Jun-19 09:51 34.857480 -119.549444 209 10003ft 166kts
16-Jun-19 09:52 34.816179 -119.575846 209 10016ft 166kts
16-Jun-19 09:53 34.775153 -119.602016 209 10027ft 166kts
16-Jun-19 09:54 34.733922 -119.628290 210 10039ft 166kts
16-Jun-19 09:55 34.692595 -119.654606 209 10045ft 166kts
16-Jun-19 09:56 34.651100 -119.681059 209 9646ft 170kts
16-Jun-19 09:57 34.608834 -119.707947 209 8643ft 171kts
16-Jun-19 09:58 34.567574 -119.734086 210 8042ft 154kts
16-Jun-19 09:59 34.531023 -119.757230 210 8049ft 151kts
16-Jun-19 10:00 34.506106 -119.798617 241 8046ft 155kts
16-Jun-19 10:01 34.484207 -119.843922 242 8046ft 155kts
16-Jun-19 10:02 34.462044 -119.889187 241 8045ft 155kts
16-Jun-19 10:03 34.439822 -119.934539 241 8045ft 155kts
16-Jun-19 10:04 34.417696 -119.979655 241 8045ft 155kts
16-Jun-19 10:05 34.395460 -120.024704 241 8047ft 155kts
16-Jun-19 10:06 34.400581 -120.071330 298 7741ft 164kts
16-Jun-19 10:07 34.422062 -120.123064 295 6745ft 174kts
16-Jun-19 10:08 34.439897 -120.168865 295 6067ft 143kts
16-Jun-19 10:09 34.456871 -120.213114 295 6069ft 144kts
16-Jun-19 10:10 34.473270 -120.257624 292 6072ft 144kts
16-Jun-19 10:11 34.469096 -120.299688 220 6089ft 151kts
16-Jun-19 10:12 34.478693 -120.339738 321 5937ft 144kts
16-Jun-19 10:13 34.514804 -120.358876 3 5461ft 149kts
16-Jun-19 10:14 34.548278 -120.369322 315 4416ft 128kts
16-Jun-19 10:15 34.571718 -120.395371 318 3863ft 106kts
16-Jun-19 10:16 34.589581 -120.415243 317 3838ft 83kts
16-Jun-19 10:17 34.606433 -120.434321 317 3462ft 81kts
16-Jun-19 10:18 34.624032 -120.454410 317 3046ft 107kts
16-Jun-19 10:19 34.646197 -120.479554 317 2442ft 110kts
16-Jun-19 10:20 34.668673 -120.505314 317 1830ft 111kts
16-Jun-19 10:21 34.691329 -120.531334 317 1216ft 104kts
16-Jun-19 10:22 34.706403 -120.548803 321 810ft 69kts
16-Jun-19 10:23 34.721158 -120.565726 320 417ft 79kts
16-Jun-19 10:24 34.729442 -120.575323 320 321ft 21kts
16-Jun-19 10:25 34.733310 -120.573387 45 321ft 17kts
16-Jun-19 10:26 34.734106 -120.571112 134 321ft 0kts
16-Jun-19 10:27 34.734106 -120.571112 134 321ft 0kts
16-Jun-19 10:28 34.734106 -120.571112 134 321ft 0kts

Navigation Log

Ident Type
Flight plan parsing failed, navigation log unavailable